createdAt,value
2023-04-07T00:00:22.587Z,65.73
2023-04-07T00:03:23.964Z,65.81
2023-04-07T00:06:16.206Z,65.49
2023-04-07T00:09:08.187Z,65.75
2023-04-07T00:11:51.225Z,65.56
2023-04-07T00:14:43.291Z,65.54
2023-04-07T00:17:35.408Z,65.45
2023-04-07T00:20:27.471Z,65.58
2023-04-07T00:23:02.142Z,65.58
2023-04-07T00:25:54.238Z,65.54
2023-04-07T00:28:46.164Z,65.75
2023-04-07T00:31:29.671Z,65.49
2023-04-07T00:34:21.785Z,65.51
2023-04-07T00:37:13.812Z,65.55
2023-04-07T00:40:06.588Z,65.57
2023-04-07T00:42:58.550Z,65.58
2023-04-07T00:45:50.620Z,65.67
2023-04-07T00:48:42.617Z,65.72
2023-04-07T00:51:34.982Z,65.73
2023-04-07T00:54:27.703Z,65.64
2023-04-07T00:57:19.694Z,65.71
2023-04-07T01:00:13.085Z,65.96
2023-04-07T01:03:10.912Z,65.92
2023-04-07T01:06:06.722Z,65.83
2023-04-07T01:09:06.181Z,65.80
2023-04-07T01:12:06.393Z,65.94
2023-04-07T01:15:05.699Z,65.99
2023-04-07T01:18:07.422Z,66.01
2023-04-07T01:21:04.574Z,66.15
2023-04-07T01:24:18.452Z,65.91
2023-04-07T01:27:20.142Z,66.10
2023-04-07T01:30:14.419Z,65.95
2023-04-07T01:33:07.894Z,66.12
2023-04-07T01:36:02.278Z,66.32
2023-04-07T01:38:55.928Z,66.10
2023-04-07T01:41:34.312Z,66.13
2023-04-07T01:44:28.496Z,66.17
2023-04-07T01:47:21.600Z,66.16
2023-04-07T01:50:04.563Z,66.03
2023-04-07T01:52:57.147Z,66.19
2023-04-07T01:55:49.200Z,66.23
2023-04-07T01:58:41.251Z,66.41
2023-04-07T02:01:33.403Z,66.14
2023-04-07T02:04:32.158Z,66.30
2023-04-07T02:07:30.489Z,66.52
2023-04-07T02:10:25.364Z,66.50
2023-04-07T02:13:20.057Z,66.44
2023-04-07T02:16:09.535Z,66.50
2023-04-07T02:19:02.488Z,66.66
2023-04-07T02:21:55.568Z,66.61
2023-04-07T02:24:27.482Z,66.48
2023-04-07T02:27:20.639Z,66.64
2023-04-07T02:30:14.048Z,66.56
2023-04-07T02:33:06.310Z,66.70
2023-04-07T02:35:54.467Z,66.69
2023-04-07T02:38:39.985Z,66.57
2023-04-07T02:41:32.089Z,66.55
2023-04-07T02:44:24.095Z,66.62
2023-04-07T02:47:16.050Z,66.63
2023-04-07T02:50:09.471Z,66.64
2023-04-07T02:53:01.435Z,66.73
2023-04-07T02:55:36.338Z,66.84
2023-04-07T02:58:28.548Z,66.57
2023-04-07T03:01:20.768Z,66.80
2023-04-07T03:04:13.330Z,66.77
2023-04-07T03:07:05.399Z,66.84
2023-04-07T03:09:57.367Z,67.02
2023-04-07T03:12:49.832Z,66.91
2023-04-07T03:15:41.866Z,66.95
2023-04-07T03:18:33.837Z,66.98
2023-04-07T03:21:15.508Z,66.89
2023-04-07T03:24:08.942Z,66.89
2023-04-07T03:27:02.056Z,66.88
2023-04-07T03:29:54.351Z,66.80
2023-04-07T03:32:46.408Z,66.93
2023-04-07T03:35:34.640Z,67.02
2023-04-07T03:38:26.710Z,67.02
2023-04-07T03:41:18.695Z,66.98
2023-04-07T03:44:10.677Z,67.09
2023-04-07T03:47:03.138Z,67.10
2023-04-07T03:49:55.397Z,67.07
2023-04-07T03:52:47.779Z,67.00
2023-04-07T03:55:39.841Z,66.96
2023-04-07T03:58:31.977Z,67.19
2023-04-07T04:01:24.058Z,67.12
2023-04-07T04:03:56.228Z,67.08
2023-04-07T04:06:48.754Z,67.26
2023-04-07T04:09:41.272Z,67.12
2023-04-07T04:12:33.343Z,67.25
2023-04-07T04:15:25.409Z,67.36
2023-04-07T04:18:17.353Z,67.18
2023-04-07T04:20:49.323Z,67.13
2023-04-07T04:23:41.328Z,67.08
2023-04-07T04:26:33.387Z,67.18
2023-04-07T04:29:25.370Z,67.04
2023-04-07T04:32:17.837Z,67.26
2023-04-07T04:35:11.025Z,67.24
2023-04-07T04:38:03.053Z,67.13
2023-04-07T04:40:55.065Z,67.27
2023-04-07T04:43:47.968Z,67.32
2023-04-07T04:46:40.163Z,67.20
2023-04-07T04:49:32.161Z,67.27
2023-04-07T04:52:24.133Z,67.14
2023-04-07T04:54:59.208Z,67.35
2023-04-07T04:57:36.020Z,67.37
2023-04-07T05:00:28.062Z,67.29
2023-04-07T05:03:20.235Z,67.32
2023-04-07T05:06:12.285Z,67.28
2023-04-07T05:09:04.269Z,67.31
2023-04-07T05:11:57.851Z,67.22
2023-04-07T05:14:49.942Z,67.31
2023-04-07T05:17:24.649Z,67.42
2023-04-07T05:20:17.468Z,67.50
2023-04-07T05:23:09.406Z,67.40
2023-04-07T05:25:52.687Z,67.34
2023-04-07T05:28:44.635Z,67.37
2023-04-07T05:31:37.477Z,67.31
2023-04-07T05:34:14.781Z,67.19
2023-04-07T05:37:06.763Z,67.37
2023-04-07T05:39:59.206Z,67.44
2023-04-07T05:42:51.378Z,67.31
2023-04-07T05:45:43.471Z,67.44
2023-04-07T05:48:35.543Z,67.19
2023-04-07T05:51:27.572Z,67.35
2023-04-07T05:54:19.614Z,67.39
2023-04-07T05:57:11.738Z,67.23
2023-04-07T06:00:04.333Z,67.11
2023-04-07T06:02:40.165Z,67.37
2023-04-07T06:05:17.902Z,67.34
2023-04-07T06:08:10.030Z,67.35
2023-04-07T06:11:02.282Z,67.18
2023-04-07T06:13:54.396Z,67.37
2023-04-07T06:16:46.741Z,67.19
2023-04-07T06:19:38.778Z,67.19
2023-04-07T06:22:30.910Z,67.30
2023-04-07T06:25:23.099Z,67.22
2023-04-07T06:28:03.929Z,67.19
2023-04-07T06:30:41.177Z,67.01
2023-04-07T06:33:33.254Z,67.07
2023-04-07T06:36:25.312Z,67.14
2023-04-07T06:39:17.392Z,67.21
2023-04-07T06:41:54.713Z,67.12
2023-04-07T06:44:37.850Z,66.99
2023-04-07T06:47:29.892Z,67.06
2023-04-07T06:50:22.314Z,67.03
2023-04-07T06:53:14.356Z,66.95
2023-04-07T06:55:49.112Z,66.86
2023-04-07T06:58:29.994Z,66.78
2023-04-07T07:01:18.410Z,66.64
2023-04-07T07:04:10.861Z,66.69
2023-04-07T07:06:45.480Z,66.68
2023-04-07T07:09:37.503Z,66.70
2023-04-07T07:12:29.620Z,66.58
2023-04-07T07:15:13.550Z,66.59
2023-04-07T07:18:05.816Z,66.58
2023-04-07T07:20:46.506Z,66.39
2023-04-07T07:23:38.527Z,66.23
2023-04-07T07:26:30.697Z,66.34
2023-04-07T07:29:22.783Z,66.13
2023-04-07T07:32:05.019Z,66.40
2023-04-07T07:34:57.031Z,66.26
2023-04-07T07:37:49.453Z,66.15
2023-04-07T07:40:47.060Z,66.15
2023-04-07T07:43:39.076Z,66.24
2023-04-07T07:46:13.786Z,66.16
2023-04-07T07:49:06.033Z,66.35
2023-04-07T07:51:40.193Z,66.41
2023-04-07T07:54:32.142Z,66.38
2023-04-07T07:57:24.145Z,66.38
2023-04-07T08:00:17.179Z,66.24
2023-04-07T08:03:00.272Z,66.06
2023-04-07T08:05:34.760Z,66.14
2023-04-07T08:08:26.789Z,66.20
2023-04-07T08:11:18.783Z,66.34
2023-04-07T08:14:10.869Z,66.32
2023-04-07T08:17:02.994Z,66.26
2023-04-07T08:19:55.061Z,66.38
2023-04-07T08:22:47.123Z,66.39
2023-04-07T08:25:40.004Z,66.25
2023-04-07T08:28:31.938Z,66.26
2023-04-07T08:31:23.983Z,66.31
2023-04-07T08:34:16.605Z,66.16
2023-04-07T08:37:09.555Z,66.16
2023-04-07T08:39:46.534Z,66.21
2023-04-07T08:42:30.785Z,66.18
2023-04-07T08:45:23.551Z,66.11
2023-04-07T08:48:17.579Z,66.10
2023-04-07T08:51:10.975Z,66.08
2023-04-07T08:54:09.908Z,66.24
2023-04-07T08:57:03.882Z,66.16
2023-04-07T08:59:56.264Z,65.93
2023-04-07T09:02:49.356Z,66.09
2023-04-07T09:05:25.078Z,66.17
2023-04-07T09:08:17.126Z,66.12
2023-04-07T09:10:48.931Z,66.00
2023-04-07T09:13:22.096Z,65.90
2023-04-07T09:16:00.713Z,65.99
2023-04-07T09:18:33.483Z,66.02
2023-04-07T09:21:15.850Z,66.00
2023-04-07T09:23:48.302Z,66.10
2023-04-07T09:26:25.743Z,65.94
2023-04-07T09:29:21.742Z,65.77
2023-04-07T09:31:55.377Z,65.87
2023-04-07T09:34:47.675Z,65.91
2023-04-07T09:37:39.663Z,66.08
2023-04-07T09:40:29.978Z,66.15
2023-04-07T09:43:15.634Z,66.16
2023-04-07T09:46:12.618Z,66.16
2023-04-07T09:49:06.285Z,66.04
2023-04-07T09:52:00.739Z,66.25
2023-04-07T09:54:53.956Z,66.32
2023-04-07T09:57:31.096Z,66.34
2023-04-07T10:00:23.229Z,66.42
2023-04-07T10:03:04.750Z,66.57
2023-04-07T10:05:57.015Z,66.54
2023-04-07T10:08:49.249Z,66.35
2023-04-07T10:11:42.580Z,66.24
2023-04-07T10:14:37.130Z,66.36
2023-04-07T10:17:21.544Z,66.45
2023-04-07T10:20:14.402Z,66.51
2023-04-07T10:23:08.110Z,66.60
2023-04-07T10:26:02.506Z,66.66
2023-04-07T10:29:00.117Z,66.52
2023-04-07T10:31:52.740Z,66.64
2023-04-07T10:35:01.264Z,66.74
2023-04-07T10:37:38.235Z,66.66
2023-04-07T10:40:34.508Z,66.74
2023-04-07T10:43:41.785Z,66.61
2023-04-07T10:47:10.519Z,66.53
2023-04-07T10:50:22.445Z,66.96
2023-04-07T10:53:16.237Z,67.09
2023-04-07T10:55:59.252Z,67.27
2023-04-07T10:59:17.280Z,67.18
2023-04-07T11:02:33.934Z,66.96
2023-04-07T11:05:26.256Z,67.12
2023-04-07T11:08:33.035Z,67.21
2023-04-07T11:11:41.600Z,67.31
2023-04-07T11:14:37.316Z,67.14
2023-04-07T11:17:17.521Z,67.20
2023-04-07T11:19:56.026Z,67.07
2023-04-07T11:22:30.331Z,67.10
2023-04-07T11:25:21.647Z,66.96
2023-04-07T11:27:56.625Z,67.13
2023-04-07T11:30:51.588Z,67.22
2023-04-07T11:33:29.027Z,66.98
2023-04-07T11:36:29.641Z,66.99
2023-04-07T11:39:28.134Z,66.83
2023-04-07T11:42:34.443Z,66.74
2023-04-07T11:45:20.819Z,66.93
2023-04-07T11:48:42.317Z,66.71
2023-04-07T11:51:34.414Z,66.66
2023-04-07T11:54:26.516Z,66.73
2023-04-07T11:57:27.404Z,66.87
2023-04-07T12:00:20.752Z,66.80
2023-04-07T12:03:16.392Z,66.95
2023-04-07T12:05:54.542Z,66.81
2023-04-07T12:08:42.091Z,66.92
2023-04-07T12:11:35.888Z,67.09
2023-04-07T12:14:18.116Z,67.17
2023-04-07T12:16:56.481Z,67.41
2023-04-07T12:19:48.642Z,67.49
2023-04-07T12:22:40.754Z,67.31
2023-04-07T12:25:32.809Z,67.52
2023-04-07T12:28:24.798Z,67.63
2023-04-07T12:31:07.217Z,67.65
2023-04-07T12:33:39.065Z,67.68
2023-04-07T12:36:31.148Z,67.66
2023-04-07T12:39:03.222Z,67.57
2023-04-07T12:41:55.402Z,67.74
2023-04-07T12:44:47.393Z,67.90
2023-04-07T12:47:39.457Z,67.75
2023-04-07T12:50:31.866Z,67.89
2023-04-07T12:53:24.052Z,67.98
2023-04-07T12:55:58.862Z,67.73
2023-04-07T12:58:51.201Z,67.80
2023-04-07T13:01:43.413Z,67.96
2023-04-07T13:04:30.399Z,67.90
2023-04-07T13:07:22.705Z,67.95
2023-04-07T13:10:14.757Z,67.72
2023-04-07T13:13:07.065Z,67.85
2023-04-07T13:15:49.463Z,67.90
2023-04-07T13:18:41.764Z,67.97
2023-04-07T13:21:46.147Z,68.15
2023-04-07T13:24:38.578Z,68.14
2023-04-07T13:27:30.584Z,68.27
2023-04-07T13:30:23.003Z,68.10
2023-04-07T13:33:15.068Z,68.06
2023-04-07T13:36:07.839Z,68.15
2023-04-07T13:39:00.168Z,68.01
2023-04-07T13:41:52.099Z,67.87
2023-04-07T13:44:27.316Z,67.80
2023-04-07T13:47:20.391Z,67.95
2023-04-07T13:50:13.089Z,67.90
2023-04-07T13:52:54.056Z,68.03
2023-04-07T13:55:46.113Z,68.01
2023-04-07T13:58:26.962Z,68.08
2023-04-07T14:01:19.043Z,68.03
2023-04-07T14:03:57.451Z,68.03
2023-04-07T14:06:51.302Z,68.15
2023-04-07T14:09:43.701Z,68.05
2023-04-07T14:12:35.980Z,68.22
2023-04-07T14:15:28.254Z,68.18
2023-04-07T14:18:20.509Z,68.18
2023-04-07T14:21:12.638Z,68.25
2023-04-07T14:24:04.910Z,68.38
2023-04-07T14:26:56.999Z,68.39
2023-04-07T14:29:49.038Z,68.44
2023-04-07T14:32:41.040Z,68.24
2023-04-07T14:35:33.085Z,68.33
2023-04-07T14:38:26.008Z,68.32
2023-04-07T14:41:18.248Z,68.42
2023-04-07T14:44:00.159Z,68.58
2023-04-07T14:46:52.208Z,68.74
2023-04-07T14:49:28.451Z,68.79
2023-04-07T14:52:20.599Z,68.75
2023-04-07T14:55:04.112Z,68.83
2023-04-07T14:57:56.077Z,68.76
2023-04-07T15:00:48.122Z,68.66
2023-04-07T15:03:40.256Z,68.83
2023-04-07T15:06:32.670Z,68.70
2023-04-07T15:09:07.288Z,68.87
2023-04-07T15:12:00.370Z,68.86
2023-04-07T15:14:32.828Z,68.83
2023-04-07T15:17:36.443Z,68.98
2023-04-07T15:20:34.823Z,69.03
2023-04-07T15:23:26.779Z,69.06
2023-04-07T15:26:18.804Z,69.08
2023-04-07T15:28:53.584Z,68.97
2023-04-07T15:31:45.795Z,68.99
2023-04-07T15:34:37.808Z,69.02
2023-04-07T15:37:14.086Z,69.07
2023-04-07T15:40:07.239Z,69.02
2023-04-07T15:42:59.213Z,68.99
2023-04-07T15:45:51.298Z,69.09
2023-04-07T15:48:28.398Z,69.13
2023-04-07T15:51:20.438Z,69.18
2023-04-07T15:54:12.455Z,69.29
2023-04-07T15:57:04.468Z,69.42
2023-04-07T15:59:56.991Z,69.40
2023-04-07T16:02:49.208Z,69.42
2023-04-07T16:05:32.309Z,69.50
2023-04-07T16:08:24.753Z,69.58
2023-04-07T16:11:06.206Z,69.53
2023-04-07T16:13:58.188Z,69.74
2023-04-07T16:16:53.679Z,69.64
2023-04-07T16:19:45.780Z,69.76
2023-04-07T16:22:37.751Z,69.76
2023-04-07T16:25:30.348Z,69.82
2023-04-07T16:28:23.402Z,69.81
2023-04-07T16:30:58.333Z,69.84
2023-04-07T16:33:52.341Z,69.85
2023-04-07T16:36:44.370Z,70.09
2023-04-07T16:39:19.156Z,69.97
2023-04-07T16:41:56.555Z,70.01
2023-04-07T16:44:48.549Z,70.02
2023-04-07T16:47:44.236Z,70.16
2023-04-07T16:50:36.356Z,70.12
2023-04-07T16:53:28.505Z,70.14
2023-04-07T16:56:03.348Z,70.06
2023-04-07T16:58:56.365Z,70.12
2023-04-07T17:01:48.599Z,70.19
2023-04-07T17:04:26.258Z,70.14
2023-04-07T17:07:19.776Z,70.20
2023-04-07T17:10:14.507Z,70.14
2023-04-07T17:13:06.641Z,70.33
2023-04-07T17:15:41.409Z,70.26
2023-04-07T17:18:34.669Z,70.38
2023-04-07T17:21:16.537Z,70.44
2023-04-07T17:23:51.828Z,70.39
2023-04-07T17:26:44.434Z,70.53
2023-04-07T17:29:36.858Z,70.52
2023-04-07T17:32:29.046Z,70.58
2023-04-07T17:35:11.399Z,70.55
2023-04-07T17:38:03.592Z,70.55
2023-04-07T17:40:38.429Z,70.56
2023-04-07T17:43:19.682Z,70.81
2023-04-07T17:46:11.801Z,70.88
2023-04-07T17:49:03.993Z,71.18
2023-04-07T17:51:56.492Z,70.94
2023-04-07T17:54:48.763Z,70.61
2023-04-07T17:57:41.610Z,70.53
2023-04-07T18:00:19.448Z,70.39
2023-04-07T18:03:08.247Z,70.34
2023-04-07T18:06:00.704Z,70.40
2023-04-07T18:08:52.659Z,70.42
2023-04-07T18:11:45.386Z,70.48
2023-04-07T18:14:34.854Z,70.60
2023-04-07T18:17:16.835Z,70.45
2023-04-07T18:20:10.650Z,70.58
2023-04-07T18:23:03.010Z,70.59
2023-04-07T18:25:55.031Z,70.56
2023-04-07T18:28:47.401Z,70.63
2023-04-07T18:31:40.324Z,70.70
2023-04-07T18:34:32.561Z,70.73
2023-04-07T18:37:07.327Z,70.78
2023-04-07T18:39:59.729Z,70.71
2023-04-07T18:42:34.442Z,70.73
2023-04-07T18:45:16.908Z,70.86
2023-04-07T18:47:54.714Z,70.80
2023-04-07T18:50:52.759Z,70.92
2023-04-07T18:53:27.827Z,71.07
2023-04-07T18:56:21.010Z,71.05
2023-04-07T18:59:03.872Z,70.94
2023-04-07T19:01:56.624Z,70.99
2023-04-07T19:04:49.342Z,70.81
2023-04-07T19:07:41.621Z,70.90
2023-04-07T19:10:33.793Z,70.93
2023-04-07T19:13:09.015Z,70.87
2023-04-07T19:15:51.459Z,70.90
2023-04-07T19:18:43.855Z,71.06
2023-04-07T19:21:35.919Z,71.06
2023-04-07T19:24:28.340Z,71.30
2023-04-07T19:27:11.945Z,71.24
2023-04-07T19:30:04.441Z,71.20
2023-04-07T19:32:56.840Z,71.26
2023-04-07T19:35:49.203Z,71.37
2023-04-07T19:38:41.281Z,71.04
2023-04-07T19:41:33.627Z,70.96
2023-04-07T19:44:26.628Z,71.05
2023-04-07T19:47:18.602Z,70.79
2023-04-07T19:50:14.198Z,70.82
2023-04-07T19:53:06.220Z,70.81
2023-04-07T19:55:58.248Z,70.87
2023-04-07T19:58:50.473Z,70.87
2023-04-07T20:01:34.182Z,70.91
2023-04-07T20:04:17.924Z,70.89
2023-04-07T20:07:10.246Z,70.80
2023-04-07T20:10:03.653Z,70.81
2023-04-07T20:12:38.583Z,70.93
2023-04-07T20:15:31.036Z,71.03
2023-04-07T20:18:23.186Z,70.95
2023-04-07T20:21:16.308Z,70.96
2023-04-07T20:23:51.844Z,70.86
2023-04-07T20:26:27.153Z,71.01
2023-04-07T20:29:20.400Z,70.98
2023-04-07T20:32:13.814Z,70.95
2023-04-07T20:35:07.407Z,70.97
2023-04-07T20:37:50.676Z,71.07
2023-04-07T20:40:42.768Z,70.88
2023-04-07T20:43:20.328Z,70.61
2023-04-07T20:45:58.268Z,70.68
2023-04-07T20:48:50.829Z,70.89
2023-04-07T20:51:43.013Z,71.04
2023-04-07T20:54:35.362Z,71.14
2023-04-07T20:57:28.331Z,71.37
2023-04-07T21:00:18.791Z,71.44
2023-04-07T21:03:11.623Z,71.43
2023-04-07T21:05:59.992Z,71.66
2023-04-07T21:08:41.052Z,71.91
2023-04-07T21:11:33.174Z,72.16
2023-04-07T21:14:07.933Z,72.20
2023-04-07T21:17:00.142Z,72.33
2023-04-07T21:19:43.418Z,72.33
2023-04-07T21:22:35.315Z,72.43
2023-04-07T21:25:27.284Z,72.38
2023-04-07T21:28:19.288Z,72.37
2023-04-07T21:30:56.793Z,72.32
2023-04-07T21:33:49.020Z,72.19
2023-04-07T21:36:41.366Z,72.28
2023-04-07T21:39:33.609Z,72.30
2023-04-07T21:42:25.830Z,72.09
2023-04-07T21:45:18.002Z,72.07
2023-04-07T21:48:10.090Z,72.03
2023-04-07T21:50:44.133Z,72.02
2023-04-07T21:53:36.844Z,72.15
2023-04-07T21:56:29.179Z,72.25
2023-04-07T21:59:18.989Z,72.31
2023-04-07T22:02:01.064Z,72.35
2023-04-07T22:04:53.264Z,72.34
2023-04-07T22:07:30.618Z,72.32
2023-04-07T22:10:22.711Z,72.35
2023-04-07T22:12:57.140Z,72.37
2023-04-07T22:15:50.218Z,72.39
2023-04-07T22:18:31.382Z,72.53
2023-04-07T22:21:23.431Z,72.52
2023-04-07T22:24:15.568Z,72.65
2023-04-07T22:27:07.639Z,72.42
2023-04-07T22:29:59.664Z,72.45
2023-04-07T22:32:51.644Z,72.65
2023-04-07T22:35:43.813Z,72.65
2023-04-07T22:38:35.880Z,72.58
2023-04-07T22:41:27.886Z,72.43
2023-04-07T22:44:19.949Z,72.53
2023-04-07T22:47:12.246Z,72.51
2023-04-07T22:50:04.815Z,72.46
2023-04-07T22:52:56.819Z,72.32
2023-04-07T22:55:40.002Z,72.52
2023-04-07T22:58:31.975Z,72.52
2023-04-07T23:01:24.059Z,72.63
2023-04-07T23:04:16.100Z,72.19
2023-04-07T23:07:08.095Z,72.19
2023-04-07T23:10:00.053Z,72.29
2023-04-07T23:12:43.390Z,72.38
2023-04-07T23:15:36.870Z,72.33
2023-04-07T23:18:28.838Z,72.22
2023-04-07T23:21:09.748Z,72.14
2023-04-07T23:24:01.772Z,72.15
2023-04-07T23:26:53.836Z,72.36
2023-04-07T23:29:45.816Z,72.35
2023-04-07T23:32:37.986Z,72.22
2023-04-07T23:35:30.005Z,72.16
2023-04-07T23:38:04.801Z,72.06
2023-04-07T23:40:56.910Z,72.12
2023-04-07T23:43:48.877Z,72.33
2023-04-07T23:46:40.962Z,72.48
2023-04-07T23:49:18.187Z,72.51
2023-04-07T23:52:11.260Z,72.29
2023-04-07T23:55:03.205Z,72.48
2023-04-07T23:57:55.215Z,72.36
